RPUF weather

Basa Air Base
Floridablanca, Pampanga Province, Philippines

Public forecast

Using degrees Celsius for public forecast. Weather courtesy of forecast.io.

Closest aviation weather report (METAR) to Basa Air Base

Closest report is Diosdado Macapagal International Airport, 12.6 nm (23.3 km) NNE. Retrieved 2020/04/04 08:00 UTC (11 minutes ago):

RPLC 040800Z 09008KT 9999 SCT020 BKN300 35/21 Q1011 NOSIG RMK A2985

Closest aviation forecast (TAF) to Basa Air Base

Closest forecast is Diosdado Macapagal International Airport, 12.6 nm (23.3 km) NNE. Retrieved 2020/04/04 06:03 UTC (2 hours ago):

TAF RPLC 040500Z 0406/0512 09012KT 9999 SCT020 BKN300 TX36/0406Z TN24/0422Z TEMPO 0406/0412 18008KT FEW020 SCT300